createdAt,value
2022-11-08T00:00:44.765Z,12.28
2022-11-08T00:03:12.076Z,12.25
2022-11-08T00:05:57.677Z,12.24
2022-11-08T00:08:43.797Z,12.22
2022-11-08T00:11:29.005Z,12.21
2022-11-08T00:13:59.830Z,12.16
2022-11-08T00:16:27.917Z,12.11
2022-11-08T00:18:55.280Z,12.07
2022-11-08T00:21:24.558Z,12.08
2022-11-08T00:23:52.307Z,12.07
2022-11-08T00:26:20.062Z,12.07
2022-11-08T00:28:46.712Z,12.11
2022-11-08T00:31:13.878Z,12.07
2022-11-08T00:33:42.111Z,12.05
2022-11-08T00:36:10.098Z,11.99
2022-11-08T00:38:43.333Z,11.95
2022-11-08T00:41:12.876Z,11.90
2022-11-08T00:43:39.698Z,11.73
2022-11-08T00:46:07.175Z,11.62
2022-11-08T00:48:34.050Z,11.66
2022-11-08T00:51:05.446Z,11.59
2022-11-08T00:53:32.851Z,11.56
2022-11-08T00:56:07.901Z,11.56
2022-11-08T00:58:34.739Z,11.49
2022-11-08T01:01:08.205Z,11.45
2022-11-08T01:03:35.696Z,11.42
2022-11-08T01:06:06.506Z,11.40
2022-11-08T01:08:34.237Z,11.34
2022-11-08T01:11:08.002Z,11.26
2022-11-08T01:13:35.826Z,11.18
2022-11-08T01:16:23.091Z,11.09
2022-11-08T01:18:51.658Z,11.09
2022-11-08T01:21:19.417Z,11.04
2022-11-08T01:23:47.395Z,11.01
2022-11-08T01:26:16.947Z,10.89
2022-11-08T01:28:44.405Z,10.93
2022-11-08T01:31:20.373Z,10.75
2022-11-08T01:33:51.576Z,10.81
2022-11-08T01:36:22.487Z,10.65
2022-11-08T01:38:50.756Z,10.61
2022-11-08T01:41:19.792Z,10.60
2022-11-08T01:43:57.946Z,10.62
2022-11-08T01:46:51.608Z,10.55
2022-11-08T01:49:43.967Z,10.56
2022-11-08T01:52:18.747Z,10.53
2022-11-08T01:55:02.770Z,10.43
2022-11-08T01:57:39.141Z,10.43
2022-11-08T02:00:10.459Z,10.34
2022-11-08T02:02:37.910Z,10.28
2022-11-08T02:05:07.274Z,10.27
2022-11-08T02:07:34.891Z,10.17
2022-11-08T02:10:03.297Z,10.14
2022-11-08T02:12:30.886Z,10.14
2022-11-08T02:14:59.651Z,10.21
2022-11-08T02:17:26.529Z,10.09
2022-11-08T02:19:53.652Z,9.96
2022-11-08T02:22:34.707Z,10.01
2022-11-08T02:25:02.792Z,9.94
2022-11-08T02:27:30.228Z,10.04
2022-11-08T02:29:57.826Z,9.93
2022-11-08T02:32:24.756Z,9.73
2022-11-08T02:34:56.344Z,9.67
2022-11-08T02:37:24.282Z,9.65
2022-11-08T02:39:51.947Z,9.63
2022-11-08T02:42:20.767Z,9.42
2022-11-08T02:44:48.258Z,9.33
2022-11-08T02:47:15.907Z,9.38
2022-11-08T02:49:42.891Z,9.52
2022-11-08T02:52:11.111Z,9.50
2022-11-08T02:54:38.642Z,9.44
2022-11-08T02:57:06.213Z,9.43
2022-11-08T02:59:32.979Z,9.33
2022-11-08T03:02:00.745Z,9.39
2022-11-08T03:04:28.553Z,9.32
2022-11-08T03:06:55.778Z,9.30
2022-11-08T03:09:23.007Z,9.22
2022-11-08T03:11:50.838Z,9.32
2022-11-08T03:14:18.365Z,9.36
2022-11-08T03:16:45.442Z,9.38
2022-11-08T03:19:13.182Z,9.36
2022-11-08T03:21:40.328Z,9.41
2022-11-08T03:24:08.181Z,9.27
2022-11-08T03:26:35.401Z,9.28
2022-11-08T03:29:02.314Z,9.21
2022-11-08T03:31:30.030Z,9.26
2022-11-08T03:33:56.886Z,9.19
2022-11-08T03:36:24.606Z,9.25
2022-11-08T03:38:54.138Z,9.19
2022-11-08T03:41:21.812Z,9.18
2022-11-08T03:43:49.542Z,9.04
2022-11-08T03:46:16.424Z,9.00
2022-11-08T03:48:43.390Z,8.94
2022-11-08T03:51:12.361Z,9.04
2022-11-08T03:53:40.598Z,8.93
2022-11-08T03:56:08.638Z,8.98
2022-11-08T03:58:36.170Z,8.86
2022-11-08T04:01:07.175Z,8.88
2022-11-08T04:03:35.879Z,8.64
2022-11-08T04:06:03.948Z,8.68
2022-11-08T04:08:31.164Z,8.61
2022-11-08T04:11:19.748Z,8.64
2022-11-08T04:14:05.132Z,8.60
2022-11-08T04:16:33.028Z,8.56
2022-11-08T04:19:20.567Z,8.62
2022-11-08T04:21:49.085Z,8.57
2022-11-08T04:24:17.558Z,8.46
2022-11-08T04:26:44.526Z,8.56
2022-11-08T04:29:12.585Z,8.38
2022-11-08T04:31:41.826Z,8.37
2022-11-08T04:34:09.131Z,8.39
2022-11-08T04:36:36.601Z,8.37
2022-11-08T04:39:06.086Z,8.43
2022-11-08T04:41:33.719Z,8.46
2022-11-08T04:44:00.678Z,8.42
2022-11-08T04:46:28.962Z,8.44
2022-11-08T04:48:57.780Z,8.46
2022-11-08T04:51:30.404Z,8.46
2022-11-08T04:53:59.535Z,8.29
2022-11-08T04:56:28.994Z,8.17
2022-11-08T04:58:59.071Z,8.12
2022-11-08T05:01:30.598Z,8.13
2022-11-08T05:04:00.097Z,8.08
2022-11-08T05:06:31.077Z,7.97
2022-11-08T05:08:59.953Z,8.08
2022-11-08T05:11:29.563Z,7.88
2022-11-08T05:13:58.590Z,7.92
2022-11-08T05:16:31.280Z,7.80
2022-11-08T05:18:59.735Z,7.87
2022-11-08T05:21:45.807Z,7.97
2022-11-08T05:24:16.718Z,7.98
2022-11-08T05:26:47.508Z,7.83
2022-11-08T05:29:16.530Z,7.80
2022-11-08T05:31:43.385Z,7.71
2022-11-08T05:34:10.708Z,7.78
2022-11-08T05:36:37.996Z,7.81
2022-11-08T05:39:06.073Z,7.83
2022-11-08T05:41:34.445Z,7.84
2022-11-08T05:44:01.416Z,7.75
2022-11-08T05:46:29.098Z,7.84
2022-11-08T05:48:56.569Z,7.91
2022-11-08T05:51:23.614Z,7.96
2022-11-08T05:53:53.276Z,7.89
2022-11-08T05:56:20.862Z,7.89
2022-11-08T05:58:48.238Z,7.92
2022-11-08T06:01:17.779Z,7.89
2022-11-08T06:03:45.091Z,7.87
2022-11-08T06:06:14.463Z,7.79
2022-11-08T06:08:49.065Z,7.76
2022-11-08T06:11:23.704Z,7.77
2022-11-08T06:13:53.140Z,7.64
2022-11-08T06:16:22.877Z,7.68
2022-11-08T06:18:49.850Z,7.66
2022-11-08T06:21:19.084Z,7.73
2022-11-08T06:23:46.516Z,7.58
2022-11-08T06:26:15.738Z,7.70
2022-11-08T06:28:45.513Z,7.79
2022-11-08T06:31:15.556Z,7.83
2022-11-08T06:33:46.697Z,7.81
2022-11-08T06:36:17.933Z,7.74
2022-11-08T06:38:48.533Z,7.65
2022-11-08T06:41:20.398Z,7.72
2022-11-08T06:43:51.147Z,7.68
2022-11-08T06:46:19.024Z,7.60
2022-11-08T06:48:50.025Z,7.64
2022-11-08T06:51:18.818Z,7.49
2022-11-08T06:53:46.211Z,7.46
2022-11-08T06:56:14.616Z,7.60
2022-11-08T06:58:42.340Z,7.64
2022-11-08T07:01:11.235Z,7.71
2022-11-08T07:03:38.658Z,7.65
2022-11-08T07:06:07.089Z,7.75
2022-11-08T07:08:37.143Z,7.69
2022-11-08T07:11:05.254Z,7.80
2022-11-08T07:13:33.288Z,7.89
2022-11-08T07:16:01.116Z,7.99
2022-11-08T07:18:28.962Z,8.04
2022-11-08T07:21:03.491Z,8.15
2022-11-08T07:23:30.958Z,8.24
2022-11-08T07:26:02.451Z,8.30
2022-11-08T07:28:29.701Z,8.32
2022-11-08T07:31:03.535Z,8.43
2022-11-08T07:33:30.664Z,8.54
2022-11-08T07:35:58.454Z,8.71
2022-11-08T07:38:27.390Z,8.83
2022-11-08T07:41:00.876Z,8.93
2022-11-08T07:43:30.112Z,9.05
2022-11-08T07:46:00.639Z,9.10
2022-11-08T07:48:30.591Z,9.20
2022-11-08T07:50:58.009Z,9.30
2022-11-08T07:53:25.666Z,9.37
2022-11-08T07:55:53.592Z,9.47
2022-11-08T07:58:21.083Z,9.49
2022-11-08T08:00:50.249Z,9.58
2022-11-08T08:03:19.211Z,9.71
2022-11-08T08:05:55.373Z,9.83
2022-11-08T08:08:24.941Z,9.94
2022-11-08T08:10:52.365Z,10.01
2022-11-08T08:13:21.554Z,9.99
2022-11-08T08:15:48.832Z,10.08
2022-11-08T08:18:17.939Z,10.16
2022-11-08T08:20:46.945Z,10.30
2022-11-08T08:23:13.686Z,10.31
2022-11-08T08:25:40.860Z,10.48
2022-11-08T08:28:11.180Z,10.56
2022-11-08T08:30:41.418Z,10.56
2022-11-08T08:33:28.007Z,10.64
2022-11-08T08:36:02.909Z,10.87
2022-11-08T08:38:33.045Z,10.85
2022-11-08T08:41:03.864Z,10.97
2022-11-08T08:43:34.491Z,11.09
2022-11-08T08:46:04.103Z,11.10
2022-11-08T08:48:31.087Z,11.21
2022-11-08T08:51:00.918Z,11.33
2022-11-08T08:53:30.914Z,11.51
2022-11-08T08:55:59.657Z,11.61
2022-11-08T08:58:27.021Z,11.77
2022-11-08T09:03:50.922Z,11.93
2022-11-08T09:06:18.376Z,12.03
2022-11-08T09:08:47.844Z,12.13
2022-11-08T09:11:14.519Z,12.24
2022-11-08T09:13:42.992Z,12.31
2022-11-08T09:16:10.866Z,12.39
2022-11-08T09:18:37.955Z,12.47
2022-11-08T09:21:06.865Z,12.55
2022-11-08T09:23:36.218Z,12.65
2022-11-08T09:26:07.037Z,12.71
2022-11-08T09:28:37.771Z,12.67
2022-11-08T09:31:08.391Z,12.67
2022-11-08T09:33:37.544Z,12.60
2022-11-08T09:36:06.358Z,12.56
2022-11-08T09:38:34.277Z,12.42
2022-11-08T09:41:19.705Z,12.45
2022-11-08T09:44:44.846Z,12.44
2022-11-08T09:47:19.800Z,12.35
2022-11-08T09:50:23.897Z,12.50
2022-11-08T09:53:15.856Z,12.41
2022-11-08T09:56:06.699Z,12.42
2022-11-08T09:58:44.024Z,12.46
2022-11-08T10:01:14.604Z,12.47
2022-11-08T10:03:47.994Z,12.48
2022-11-08T10:06:24.634Z,12.50
2022-11-08T10:09:30.464Z,12.62
2022-11-08T10:12:43.786Z,12.86
2022-11-08T10:15:39.137Z,12.97
2022-11-08T10:18:40.782Z,13.03
2022-11-08T10:21:33.403Z,13.23
2022-11-08T10:24:10.150Z,13.48
2022-11-08T10:26:46.943Z,13.61
2022-11-08T10:29:38.229Z,13.75
2022-11-08T10:32:22.827Z,13.88
2022-11-08T10:34:55.694Z,13.98
2022-11-08T10:37:24.084Z,14.07
2022-11-08T10:39:59.053Z,14.20
2022-11-08T10:42:36.810Z,14.31
2022-11-08T10:45:03.955Z,14.37
2022-11-08T10:47:33.678Z,14.36
2022-11-08T10:50:04.015Z,14.46
2022-11-08T10:53:00.719Z,14.48
2022-11-08T10:55:31.662Z,14.58
2022-11-08T10:57:58.681Z,14.54
2022-11-08T11:00:29.171Z,14.54
2022-11-08T11:03:02.211Z,14.63
2022-11-08T11:05:38.233Z,14.76
2022-11-08T11:08:17.111Z,14.82
2022-11-08T11:10:46.932Z,14.96
2022-11-08T11:16:03.747Z,15.04
2022-11-08T11:18:46.511Z,15.07
2022-11-08T11:21:17.917Z,15.22
2022-11-08T11:23:56.444Z,15.16
2022-11-08T11:26:34.534Z,15.19
2022-11-08T11:29:30.983Z,15.31
2022-11-08T11:32:00.808Z,15.31
2022-11-08T11:34:39.634Z,15.23
2022-11-08T11:37:32.984Z,15.24
2022-11-08T11:40:11.620Z,15.23
2022-11-08T11:43:22.754Z,15.28
2022-11-08T11:46:15.909Z,15.30
2022-11-08T11:48:52.311Z,15.35
2022-11-08T11:51:20.938Z,15.47
2022-11-08T11:53:48.918Z,15.41
2022-11-08T11:57:12.652Z,15.41
2022-11-08T12:00:23.224Z,15.44
2022-11-08T12:03:36.833Z,15.59
2022-11-08T12:06:40.751Z,15.61
2022-11-08T12:09:26.539Z,15.58
2022-11-08T12:12:13.898Z,15.69
2022-11-08T12:18:42.766Z,15.64
2022-11-08T12:21:25.413Z,15.71
2022-11-08T12:24:12.149Z,15.72
2022-11-08T12:27:06.305Z,15.79
2022-11-08T12:29:42.041Z,15.74
2022-11-08T12:32:27.924Z,15.73
2022-11-08T12:35:37.157Z,15.66
2022-11-08T12:38:18.559Z,15.78
2022-11-08T12:40:59.665Z,15.84
2022-11-08T12:43:44.888Z,15.86
2022-11-08T12:46:18.667Z,15.93
2022-11-08T12:49:47.823Z,16.03
2022-11-08T12:55:30.753Z,16.03
2022-11-08T12:57:58.991Z,16.13
2022-11-08T13:00:27.903Z,16.13
2022-11-08T13:03:38.130Z,16.11
2022-11-08T13:06:30.137Z,16.07
2022-11-08T13:09:09.397Z,16.05
2022-11-08T13:12:01.734Z,15.96
2022-11-08T13:14:28.438Z,16.02
2022-11-08T13:17:25.824Z,16.07
2022-11-08T13:20:05.914Z,15.91
2022-11-08T13:22:45.087Z,16.03
2022-11-08T13:25:33.413Z,16.11
2022-11-08T13:28:00.210Z,16.30
2022-11-08T13:30:34.245Z,16.45
2022-11-08T13:33:22.533Z,16.54
2022-11-08T13:36:02.390Z,16.61
2022-11-08T13:39:18.531Z,16.49
2022-11-08T13:42:08.490Z,16.24
2022-11-08T13:44:59.897Z,16.10
2022-11-08T13:47:55.108Z,16.11
2022-11-08T13:50:49.109Z,16.06
2022-11-08T13:53:52.095Z,16.02
2022-11-08T13:56:26.443Z,15.99
2022-11-08T13:58:53.054Z,15.99
2022-11-08T14:01:46.634Z,15.94
2022-11-08T14:04:26.124Z,15.85
2022-11-08T14:07:24.773Z,15.88
2022-11-08T14:10:28.167Z,15.88
2022-11-08T14:13:43.479Z,15.74
2022-11-08T14:16:32.005Z,15.58
2022-11-08T14:19:21.107Z,15.61
2022-11-08T14:21:50.626Z,15.51
2022-11-08T14:24:21.943Z,15.54
2022-11-08T14:26:49.038Z,15.40
2022-11-08T14:29:18.238Z,15.35
2022-11-08T14:31:46.101Z,15.41
2022-11-08T14:34:31.625Z,15.30
2022-11-08T14:37:00.448Z,15.25
2022-11-08T14:39:35.174Z,15.12
2022-11-08T14:42:04.692Z,15.17
2022-11-08T14:44:32.554Z,15.16
2022-11-08T14:47:00.111Z,15.16
2022-11-08T14:49:48.257Z,15.00
2022-11-08T14:52:17.681Z,14.97
2022-11-08T14:54:46.625Z,14.85
2022-11-08T14:57:33.281Z,14.81
2022-11-08T15:00:04.204Z,14.74
2022-11-08T15:02:32.149Z,14.65
2022-11-08T15:04:59.406Z,14.57
2022-11-08T15:07:26.993Z,14.50
2022-11-08T15:09:54.179Z,14.51
2022-11-08T15:12:24.485Z,14.36
2022-11-08T15:14:55.446Z,14.48
2022-11-08T15:17:41.530Z,14.41
2022-11-08T15:20:20.320Z,14.32
2022-11-08T15:22:51.808Z,14.19
2022-11-08T15:25:34.825Z,14.34
2022-11-08T15:28:26.128Z,14.22
2022-11-08T15:30:58.279Z,14.19
2022-11-08T15:33:27.479Z,14.06
2022-11-08T15:35:54.276Z,13.99
2022-11-08T15:38:33.505Z,14.07
2022-11-08T15:41:03.935Z,14.05
2022-11-08T15:43:40.620Z,13.98
2022-11-08T15:46:26.811Z,14.01
2022-11-08T15:48:58.209Z,13.94
2022-11-08T15:51:25.541Z,13.77
2022-11-08T15:53:52.787Z,13.65
2022-11-08T15:56:19.834Z,13.54
2022-11-08T15:58:46.735Z,13.41
2022-11-08T16:01:20.687Z,13.40
2022-11-08T16:03:48.596Z,13.41
2022-11-08T16:06:15.692Z,13.28
2022-11-08T16:08:42.777Z,13.18
2022-11-08T16:11:18.538Z,13.13
2022-11-08T16:13:45.748Z,13.11
2022-11-08T16:16:14.705Z,13.10
2022-11-08T16:18:42.505Z,12.94
2022-11-08T16:21:13.459Z,12.94
2022-11-08T16:23:41.144Z,12.87
2022-11-08T16:26:14.908Z,12.79
2022-11-08T16:28:41.870Z,12.69
2022-11-08T16:31:16.513Z,12.71
2022-11-08T16:33:45.778Z,12.59
2022-11-08T16:36:28.109Z,12.60
2022-11-08T16:38:59.252Z,12.49
2022-11-08T16:41:26.507Z,12.48
2022-11-08T16:43:53.555Z,12.42
2022-11-08T16:46:21.930Z,12.39
2022-11-08T16:48:57.665Z,12.45
2022-11-08T16:51:25.609Z,12.34
2022-11-08T16:53:53.042Z,12.38
2022-11-08T16:56:20.781Z,12.38
2022-11-08T16:58:47.916Z,12.40
2022-11-08T17:01:21.079Z,12.38
2022-11-08T17:03:47.926Z,12.44
2022-11-08T17:06:18.388Z,12.35
2022-11-08T17:08:48.366Z,12.36
2022-11-08T17:11:20.901Z,12.29
2022-11-08T17:13:48.250Z,12.32
2022-11-08T17:16:15.842Z,12.37
2022-11-08T17:18:42.869Z,12.31
2022-11-08T17:21:38.237Z,12.21
2022-11-08T17:24:00.440Z,12.19
2022-11-08T17:26:28.276Z,12.30
2022-11-08T17:28:56.917Z,12.22
2022-11-08T17:31:23.959Z,12.14
2022-11-08T17:33:50.760Z,11.97
2022-11-08T17:36:17.470Z,11.93
2022-11-08T17:38:45.328Z,11.88
2022-11-08T17:41:17.273Z,11.92
2022-11-08T17:43:44.819Z,11.93
2022-11-08T17:46:12.082Z,11.94
2022-11-08T17:48:40.135Z,12.02
2022-11-08T17:51:07.564Z,11.93
2022-11-08T17:53:34.768Z,12.01
2022-11-08T17:56:04.485Z,11.85
2022-11-08T17:58:34.467Z,11.81
2022-11-08T18:01:03.890Z,11.88
2022-11-08T18:03:30.875Z,11.74
2022-11-08T18:05:57.604Z,11.70
2022-11-08T18:08:27.013Z,11.61
2022-11-08T18:10:55.793Z,11.59
2022-11-08T18:13:24.310Z,11.66
2022-11-08T18:15:50.992Z,11.58
2022-11-08T18:18:17.966Z,11.57
2022-11-08T18:20:46.068Z,11.55
2022-11-08T18:23:13.182Z,11.60
2022-11-08T18:25:40.387Z,11.53
2022-11-08T18:28:07.517Z,11.55
2022-11-08T18:30:34.447Z,11.39
2022-11-08T18:33:02.211Z,11.40
2022-11-08T18:35:28.984Z,11.47
2022-11-08T18:37:55.946Z,11.46
2022-11-08T18:40:23.137Z,11.46
2022-11-08T18:42:50.132Z,11.41
2022-11-08T18:45:16.941Z,11.34
2022-11-08T18:47:43.926Z,11.38
2022-11-08T18:50:11.079Z,11.34
2022-11-08T18:52:44.023Z,11.33
2022-11-08T18:55:15.187Z,11.45
2022-11-08T18:57:42.278Z,11.34
2022-11-08T19:00:09.779Z,11.41
2022-11-08T19:02:38.292Z,11.39
2022-11-08T19:05:06.125Z,11.40
2022-11-08T19:07:33.307Z,11.31
2022-11-08T19:10:00.115Z,11.31
2022-11-08T19:12:28.809Z,11.38
2022-11-08T19:14:56.249Z,11.43
2022-11-08T19:17:23.089Z,11.34
2022-11-08T19:19:50.745Z,11.33
2022-11-08T19:22:17.486Z,11.30
2022-11-08T19:24:44.328Z,11.27
2022-11-08T19:27:11.187Z,11.39
2022-11-08T19:29:38.632Z,11.41
2022-11-08T19:32:05.649Z,11.27
2022-11-08T19:34:33.790Z,11.22
2022-11-08T19:37:01.321Z,11.43
2022-11-08T19:39:28.527Z,11.18
2022-11-08T19:41:55.924Z,11.28
2022-11-08T19:44:22.807Z,11.33
2022-11-08T19:46:49.641Z,11.45
2022-11-08T19:49:17.070Z,11.29
2022-11-08T19:51:43.791Z,11.41
2022-11-08T19:54:12.871Z,11.32
2022-11-08T19:59:26.601Z,11.27
2022-11-08T20:01:53.473Z,11.28
2022-11-08T20:04:22.402Z,11.31
2022-11-08T20:06:49.459Z,11.25
2022-11-08T20:09:16.498Z,11.06
2022-11-08T20:11:43.327Z,11.07
2022-11-08T20:14:12.713Z,11.14
2022-11-08T20:16:42.301Z,10.99
2022-11-08T20:19:14.233Z,11.02
2022-11-08T20:21:42.690Z,10.90
2022-11-08T20:24:11.190Z,10.95
2022-11-08T20:26:39.068Z,11.00
2022-11-08T20:29:07.447Z,11.04
2022-11-08T20:31:35.144Z,11.10
2022-11-08T20:34:02.045Z,11.25
2022-11-08T20:36:34.594Z,11.40
2022-11-08T20:39:06.517Z,11.36
2022-11-08T20:41:35.064Z,11.26
2022-11-08T20:44:01.893Z,11.25
2022-11-08T20:46:29.892Z,11.23
2022-11-08T20:49:00.169Z,11.18
2022-11-08T20:51:28.059Z,11.16
2022-11-08T20:53:55.882Z,11.25
2022-11-08T20:56:23.701Z,11.28
2022-11-08T20:58:51.824Z,11.31
2022-11-08T21:01:20.708Z,11.31
2022-11-08T21:03:49.154Z,11.31
2022-11-08T21:06:18.465Z,11.33
2022-11-08T21:09:08.326Z,11.21
2022-11-08T21:11:34.876Z,11.30
2022-11-08T21:14:03.073Z,11.27
2022-11-08T21:16:38.184Z,11.24
2022-11-08T21:19:09.845Z,11.38
2022-11-08T21:21:36.940Z,11.40
2022-11-08T21:24:04.079Z,11.44
2022-11-08T21:26:36.703Z,11.33
2022-11-08T21:29:05.725Z,11.24
2022-11-08T21:31:33.365Z,11.31
2022-11-08T21:34:00.365Z,11.32
2022-11-08T21:36:29.504Z,11.33
2022-11-08T21:38:56.361Z,11.40
2022-11-08T21:41:23.523Z,11.37
2022-11-08T21:43:50.339Z,11.29
2022-11-08T21:46:23.506Z,11.38
2022-11-08T21:48:58.902Z,11.37
2022-11-08T21:51:26.879Z,11.42
2022-11-08T21:53:55.760Z,11.44
2022-11-08T21:56:30.302Z,11.39
2022-11-08T21:58:57.373Z,11.33
2022-11-08T22:01:29.712Z,11.34
2022-11-08T22:03:57.919Z,11.33
2022-11-08T22:06:24.593Z,11.30
2022-11-08T22:08:51.801Z,11.28
2022-11-08T22:11:19.335Z,11.30
2022-11-08T22:13:46.583Z,11.29
2022-11-08T22:16:13.917Z,11.28
2022-11-08T22:21:40.512Z,11.37
2022-11-08T22:24:18.601Z,11.37
2022-11-08T22:26:46.762Z,11.38
2022-11-08T22:29:14.136Z,11.32
2022-11-08T22:31:41.700Z,11.35
2022-11-08T22:34:09.673Z,11.38
2022-11-08T22:36:42.911Z,11.26
2022-11-08T22:39:13.193Z,11.18
2022-11-08T22:41:39.870Z,11.24
2022-11-08T22:44:11.774Z,11.29
2022-11-08T22:46:39.223Z,11.26
2022-11-08T22:49:06.239Z,11.30
2022-11-08T22:51:32.882Z,11.17
2022-11-08T22:54:00.124Z,11.20
2022-11-08T22:56:27.743Z,11.25
2022-11-08T22:58:54.642Z,11.21
2022-11-08T23:01:21.624Z,11.26
2022-11-08T23:03:48.417Z,11.32
2022-11-08T23:06:16.083Z,11.27
2022-11-08T23:08:43.394Z,11.34
2022-11-08T23:11:29.844Z,11.31
2022-11-08T23:14:15.181Z,11.31
2022-11-08T23:16:43.834Z,11.29
2022-11-08T23:19:37.724Z,11.31
2022-11-08T23:22:24.884Z,11.36
2022-11-08T23:24:51.717Z,11.34
2022-11-08T23:27:38.274Z,11.36
2022-11-08T23:30:25.175Z,11.38
2022-11-08T23:32:52.695Z,11.39
2022-11-08T23:35:20.868Z,11.38
2022-11-08T23:37:47.638Z,11.38
2022-11-08T23:40:34.614Z,11.34
2022-11-08T23:43:34.208Z,11.35
2022-11-08T23:46:09.856Z,11.38
2022-11-08T23:48:39.061Z,11.32
2022-11-08T23:51:07.246Z,11.27
2022-11-08T23:53:37.382Z,11.32
2022-11-08T23:56:05.038Z,11.31
2022-11-08T23:58:32.806Z,11.41
